createdAt,value
2023-02-05T00:02:28.037Z,7.10
2023-02-05T00:05:13.975Z,7.00
2023-02-05T00:08:00.114Z,6.90
2023-02-05T00:10:52.715Z,6.90
2023-02-05T00:13:41.475Z,6.90
2023-02-05T00:16:27.933Z,6.90
2023-02-05T00:19:14.182Z,6.90
2023-02-05T00:21:59.896Z,6.90
2023-02-05T00:24:46.085Z,6.70
2023-02-05T00:27:33.838Z,6.80
2023-02-05T00:30:20.120Z,7.00
2023-02-05T00:33:05.796Z,6.90
2023-02-05T00:35:52.148Z,6.60
2023-02-05T00:38:37.813Z,6.30
2023-02-05T00:41:23.917Z,6.30
2023-02-05T00:44:10.172Z,6.30
2023-02-05T00:46:56.467Z,6.30
2023-02-05T00:49:42.299Z,6.30
2023-02-05T00:52:28.552Z,6.40
2023-02-05T00:55:14.597Z,6.50
2023-02-05T00:58:01.349Z,6.60
2023-02-05T01:00:47.421Z,6.60
2023-02-05T01:03:33.733Z,6.70
2023-02-05T01:06:21.326Z,6.70
2023-02-05T01:09:08.072Z,6.80
2023-02-05T01:11:54.618Z,6.90
2023-02-05T01:14:41.791Z,6.80
2023-02-05T01:17:27.817Z,6.70
2023-02-05T01:20:14.994Z,6.80
2023-02-05T01:23:00.851Z,6.90
2023-02-05T01:25:47.351Z,7.00
2023-02-05T01:28:33.687Z,6.90
2023-02-05T01:31:20.660Z,6.70
2023-02-05T01:34:06.763Z,6.70
2023-02-05T01:36:52.749Z,6.90
2023-02-05T01:39:38.476Z,7.10
2023-02-05T01:42:27.834Z,7.10
2023-02-05T01:45:22.906Z,7.10
2023-02-05T01:48:10.342Z,7.10
2023-02-05T01:50:59.541Z,7.00
2023-02-05T01:53:47.961Z,6.60
2023-02-05T01:56:42.954Z,6.70
2023-02-05T01:59:32.282Z,7.00
2023-02-05T02:02:18.750Z,6.90
2023-02-05T02:05:10.872Z,7.00
2023-02-05T02:07:56.836Z,6.80
2023-02-05T02:10:44.431Z,6.60
2023-02-05T02:13:32.670Z,6.70
2023-02-05T02:16:23.152Z,6.70
2023-02-05T02:19:26.236Z,6.70
2023-02-05T02:22:26.702Z,6.80
2023-02-05T02:25:49.756Z,6.60
2023-02-05T02:28:43.420Z,6.60
2023-02-05T02:31:33.645Z,6.60
2023-02-05T02:34:32.911Z,6.70
2023-02-05T02:37:37.451Z,6.70
2023-02-05T02:40:47.616Z,6.70
2023-02-05T02:43:46.968Z,6.70
2023-02-05T02:46:40.594Z,6.70
2023-02-05T02:49:36.507Z,6.70
2023-02-05T02:52:25.421Z,6.60
2023-02-05T02:55:13.634Z,6.60
2023-02-05T02:58:04.243Z,6.60
2023-02-05T03:00:51.659Z,6.60
2023-02-05T03:03:44.104Z,6.60
2023-02-05T03:06:33.641Z,6.70
2023-02-05T03:09:48.788Z,6.60
2023-02-05T03:12:37.600Z,6.50
2023-02-05T03:15:23.857Z,6.50
2023-02-05T03:18:11.840Z,6.50
2023-02-05T03:21:02.249Z,6.50
2023-02-05T03:23:49.889Z,6.50
2023-02-05T03:26:36.542Z,6.50
2023-02-05T03:29:34.004Z,6.40
2023-02-05T03:32:36.840Z,6.30
2023-02-05T03:35:43.077Z,6.20
2023-02-05T03:38:46.881Z,6.20
2023-02-05T03:41:57.345Z,6.20
2023-02-05T03:45:26.436Z,6.20
2023-02-05T03:48:29.586Z,6.10
2023-02-05T03:51:37.856Z,5.90
2023-02-05T03:54:32.877Z,5.80
2023-02-05T03:57:33.032Z,5.70
2023-02-05T04:00:20.529Z,5.50
2023-02-05T04:03:11.329Z,5.30
2023-02-05T04:05:56.910Z,5.30
2023-02-05T04:08:44.437Z,5.30
2023-02-05T04:11:33.109Z,5.30
2023-02-05T04:14:22.556Z,5.40
2023-02-05T04:17:12.534Z,5.40
2023-02-05T04:19:59.361Z,5.40
2023-02-05T04:22:45.304Z,5.30
2023-02-05T04:25:31.664Z,5.40
2023-02-05T04:28:19.922Z,5.50
2023-02-05T04:31:12.321Z,5.50
2023-02-05T04:33:59.782Z,5.50
2023-02-05T04:36:47.494Z,5.50
2023-02-05T04:39:34.201Z,5.50
2023-02-05T04:42:20.025Z,5.50
2023-02-05T04:45:06.460Z,5.50
2023-02-05T04:47:52.504Z,5.50
2023-02-05T04:50:39.671Z,5.40
2023-02-05T04:53:25.683Z,5.40
2023-02-05T04:56:17.460Z,5.40
2023-02-05T04:59:03.183Z,5.30
2023-02-05T05:01:48.881Z,5.40
2023-02-05T05:04:34.391Z,5.40
2023-02-05T05:07:20.542Z,5.30
2023-02-05T05:10:07.340Z,5.30
2023-02-05T05:12:53.362Z,5.20
2023-02-05T05:15:39.206Z,5.30
2023-02-05T05:18:25.050Z,5.30
2023-02-05T05:21:11.072Z,5.20
2023-02-05T05:23:56.619Z,5.20
2023-02-05T05:26:45.087Z,5.30
2023-02-05T05:29:30.841Z,5.30
2023-02-05T05:32:16.894Z,5.30
2023-02-05T05:35:02.688Z,6.10
2023-02-05T05:37:48.680Z,5.10
2023-02-05T05:40:53.537Z,5.00
2023-02-05T05:43:49.377Z,5.10
2023-02-05T05:46:36.371Z,5.20
2023-02-05T05:49:22.576Z,5.20
2023-02-05T05:52:08.109Z,5.20
2023-02-05T05:54:53.805Z,5.30
2023-02-05T05:57:39.562Z,4.80
2023-02-05T06:00:25.824Z,5.20
2023-02-05T06:03:12.413Z,5.30
2023-02-05T06:06:00.731Z,5.30
2023-02-05T06:08:46.677Z,5.30
2023-02-05T06:11:32.484Z,5.40
2023-02-05T06:14:18.217Z,5.50
2023-02-05T06:17:04.223Z,5.60
2023-02-05T06:19:50.418Z,5.50
2023-02-05T06:22:36.678Z,5.50
2023-02-05T06:25:24.169Z,5.40
2023-02-05T06:28:09.867Z,5.30
2023-02-05T06:30:55.566Z,5.20
2023-02-05T06:33:41.380Z,5.20
2023-02-05T06:36:27.624Z,5.20
2023-02-05T06:39:13.330Z,5.10
2023-02-05T06:41:58.965Z,5.10
2023-02-05T06:44:44.708Z,5.10
2023-02-05T06:47:31.125Z,5.00
2023-02-05T06:50:17.304Z,5.10
2023-02-05T06:53:03.398Z,5.30
2023-02-05T06:55:49.216Z,5.30
2023-02-05T06:58:35.528Z,5.30
2023-02-05T07:01:21.613Z,5.40
2023-02-05T07:04:07.678Z,5.50
2023-02-05T07:06:57.354Z,5.40
2023-02-05T07:09:43.619Z,5.50
2023-02-05T07:12:29.346Z,5.60
2023-02-05T07:15:15.093Z,5.70
2023-02-05T07:18:01.181Z,5.80
2023-02-05T07:20:47.733Z,5.90
2023-02-05T07:23:34.317Z,6.20
2023-02-05T07:26:20.215Z,6.40
2023-02-05T07:29:06.543Z,6.70
2023-02-05T07:31:52.735Z,6.10
2023-02-05T07:34:38.841Z,6.70
2023-02-05T07:37:24.394Z,6.60
2023-02-05T07:40:10.811Z,6.90
2023-02-05T07:42:56.983Z,7.20
2023-02-05T07:45:43.033Z,7.50
2023-02-05T07:48:28.642Z,7.70
2023-02-05T07:51:20.560Z,8.00
2023-02-05T07:54:08.598Z,8.00
2023-02-05T07:56:55.489Z,8.30
2023-02-05T07:59:41.166Z,8.30
2023-02-05T08:02:27.768Z,8.50
2023-02-05T08:05:13.960Z,8.90
2023-02-05T08:08:00.418Z,9.30
2023-02-05T08:10:46.170Z,9.60
2023-02-05T08:13:32.561Z,10.10
2023-02-05T08:16:18.843Z,10.30
2023-02-05T08:19:04.745Z,10.50
2023-02-05T08:21:50.756Z,10.10
2023-02-05T08:24:36.428Z,10.30
2023-02-05T08:27:22.375Z,9.90
2023-02-05T08:30:12.817Z,9.60
2023-02-05T08:32:59.324Z,8.20
2023-02-05T08:35:45.690Z,7.00
2023-02-05T08:38:31.550Z,6.80
2023-02-05T08:41:17.558Z,7.90
2023-02-05T08:44:03.658Z,7.10
2023-02-05T08:46:50.626Z,7.60
2023-02-05T08:49:38.442Z,8.70
2023-02-05T08:52:24.234Z,10.20
2023-02-05T08:55:10.302Z,10.90
2023-02-05T08:57:56.923Z,11.50
2023-02-05T09:00:42.814Z,12.00
2023-02-05T09:03:30.581Z,12.80
2023-02-05T09:06:16.700Z,13.80
2023-02-05T09:09:02.209Z,14.30
2023-02-05T09:11:48.570Z,14.10
2023-02-05T09:14:36.377Z,13.60
2023-02-05T09:17:22.101Z,13.90
2023-02-05T09:20:08.304Z,13.80
2023-02-05T09:22:55.404Z,13.70
2023-02-05T09:25:42.300Z,14.40
2023-02-05T09:28:28.172Z,15.00
2023-02-05T09:31:16.990Z,15.70
2023-02-05T09:37:56.023Z,14.70
2023-02-05T09:41:08.313Z,12.90
2023-02-05T09:44:15.402Z,13.30
2023-02-05T09:47:25.479Z,12.00
2023-02-05T09:50:27.548Z,10.10
2023-02-05T09:53:17.865Z,10.70
2023-02-05T09:56:07.490Z,9.80
2023-02-05T09:58:55.990Z,11.60
2023-02-05T10:02:06.008Z,11.10
2023-02-05T10:04:54.939Z,11.10
2023-02-05T10:08:16.862Z,12.90
2023-02-05T10:11:09.715Z,11.20
2023-02-05T10:14:33.163Z,11.50
2023-02-05T10:17:33.285Z,12.00
2023-02-05T10:20:52.274Z,14.70
2023-02-05T10:24:27.438Z,15.40
2023-02-05T10:27:22.657Z,13.60
2023-02-05T10:30:23.784Z,10.20
2023-02-05T10:33:18.943Z,9.00
2023-02-05T10:36:06.890Z,9.20
2023-02-05T10:38:56.323Z,9.50
2023-02-05T10:41:53.654Z,9.70
2023-02-05T10:44:45.221Z,9.90
2023-02-05T10:47:46.838Z,8.90
2023-02-05T11:04:52.931Z,8.50
2023-02-05T11:07:43.471Z,8.70
2023-02-05T11:10:32.792Z,8.60
2023-02-05T11:13:21.516Z,7.70
2023-02-05T11:16:08.985Z,7.80
2023-02-05T11:19:00.505Z,8.70
2023-02-05T11:21:59.281Z,8.10
2023-02-05T11:24:45.634Z,8.50
2023-02-05T11:27:34.080Z,9.30
2023-02-05T11:39:38.906Z,8.00
2023-02-05T11:42:26.582Z,8.00
2023-02-05T11:45:20.072Z,8.40
2023-02-05T11:48:22.964Z,9.20
2023-02-05T11:51:12.782Z,9.70
2023-02-05T11:58:36.270Z,9.10
2023-02-05T12:01:24.880Z,8.60
2023-02-05T12:04:18.936Z,8.70
2023-02-05T12:07:13.227Z,9.20
2023-02-05T12:10:27.013Z,8.80
2023-02-05T12:14:27.901Z,9.50
2023-02-05T12:17:49.574Z,8.80
2023-02-05T12:20:41.412Z,8.30
2023-02-05T12:23:56.806Z,8.30
2023-02-05T12:26:46.127Z,8.30
2023-02-05T12:38:07.766Z,8.90
2023-02-05T12:41:45.310Z,8.70
2023-02-05T12:44:56.213Z,8.90
2023-02-05T12:47:55.695Z,9.00
2023-02-05T12:51:03.659Z,9.10
2023-02-05T12:54:27.570Z,8.90
2023-02-05T12:57:40.180Z,8.80
2023-02-05T13:05:14.490Z,9.40
2023-02-05T13:12:16.668Z,8.70
2023-02-05T13:15:41.717Z,9.00
2023-02-05T13:18:35.797Z,9.10
2023-02-05T13:21:41.207Z,9.20
2023-02-05T13:24:59.200Z,8.90
2023-02-05T13:32:16.392Z,8.90
2023-02-05T13:35:02.439Z,9.00
2023-02-05T13:37:47.713Z,8.70
2023-02-05T13:58:31.990Z,8.60
2023-02-05T14:22:30.460Z,9.10
2023-02-05T14:34:17.767Z,8.90
2023-02-05T14:41:24.871Z,9.00
2023-02-05T14:53:08.484Z,9.00
2023-02-05T14:56:34.196Z,9.10
2023-02-05T15:15:35.199Z,9.00
2023-02-05T15:22:39.458Z,8.80
2023-02-05T15:29:32.977Z,8.60
2023-02-05T15:42:12.749Z,8.40
2023-02-05T15:48:48.476Z,8.30
2023-02-05T16:08:38.372Z,8.00
2023-02-05T16:11:47.927Z,8.00
2023-02-05T16:14:35.525Z,7.90
2023-02-05T16:17:31.444Z,7.80
2023-02-05T16:20:31.099Z,7.80
2023-02-05T16:23:29.290Z,7.70
2023-02-05T16:26:22.691Z,7.70
2023-02-05T16:29:26.761Z,7.70
2023-02-05T16:32:44.709Z,7.70
2023-02-05T16:35:40.077Z,7.50
2023-02-05T16:38:28.592Z,7.50
2023-02-05T16:41:28.224Z,7.40
2023-02-05T16:44:30.669Z,7.30
2023-02-05T16:47:21.262Z,7.30
2023-02-05T16:50:43.221Z,7.30
2023-02-05T16:53:32.991Z,7.40
2023-02-05T16:56:28.173Z,7.40
2023-02-05T16:59:23.948Z,7.30
2023-02-05T17:02:29.368Z,7.20
2023-02-05T17:05:22.958Z,7.00
2023-02-05T17:08:12.515Z,6.90
2023-02-05T17:11:01.339Z,6.80
2023-02-05T17:13:49.032Z,6.70
2023-02-05T17:16:35.133Z,6.60
2023-02-05T17:19:28.494Z,6.50
2023-02-05T17:22:14.641Z,6.40
2023-02-05T17:25:00.628Z,6.40
2023-02-05T17:27:46.872Z,6.40
2023-02-05T17:30:32.866Z,6.30
2023-02-05T17:33:22.776Z,6.30
2023-02-05T17:36:15.112Z,6.20
2023-02-05T17:39:00.831Z,6.20
2023-02-05T17:42:05.019Z,6.20
2023-02-05T17:44:53.260Z,6.20
2023-02-05T17:47:39.021Z,6.20
2023-02-05T17:50:25.550Z,6.50
2023-02-05T17:53:14.231Z,6.30
2023-02-05T17:56:00.768Z,6.00
2023-02-05T17:58:48.165Z,5.90
2023-02-05T18:01:34.026Z,6.60
2023-02-05T18:04:20.810Z,5.80
2023-02-05T18:07:19.952Z,5.70
2023-02-05T18:10:07.132Z,5.70
2023-02-05T18:12:56.045Z,5.70
2023-02-05T18:15:41.947Z,5.60
2023-02-05T18:18:29.553Z,5.60
2023-02-05T18:21:16.049Z,5.50
2023-02-05T18:24:02.892Z,5.50
2023-02-05T18:26:52.303Z,5.50
2023-02-05T18:29:39.397Z,5.50
2023-02-05T18:32:26.067Z,5.40
2023-02-05T18:35:14.947Z,5.60
2023-02-05T18:38:01.112Z,5.40
2023-02-05T18:40:48.591Z,5.50
2023-02-05T18:43:36.687Z,5.60
2023-02-05T18:46:23.393Z,5.80
2023-02-05T18:49:10.366Z,5.90
2023-02-05T18:51:56.593Z,5.80
2023-02-05T18:54:43.960Z,5.90
2023-02-05T18:57:30.627Z,6.20
2023-02-05T19:00:16.785Z,6.20
2023-02-05T19:03:02.482Z,6.30
2023-02-05T19:05:48.451Z,6.30
2023-02-05T19:08:34.668Z,6.40
2023-02-05T19:11:24.335Z,6.60
2023-02-05T19:14:13.474Z,6.50
2023-02-05T19:17:00.212Z,6.00
2023-02-05T19:19:46.697Z,5.80
2023-02-05T19:22:32.753Z,5.40
2023-02-05T19:25:19.236Z,5.50
2023-02-05T19:28:05.174Z,5.60
2023-02-05T19:30:51.102Z,5.80
2023-02-05T19:33:37.345Z,5.70
2023-02-05T19:36:23.623Z,5.70
2023-02-05T19:39:12.525Z,5.30
2023-02-05T19:41:58.317Z,5.20
2023-02-05T19:44:44.293Z,5.20
2023-02-05T19:47:30.137Z,5.20
2023-02-05T19:50:16.103Z,5.20
2023-02-05T19:53:02.052Z,5.30
2023-02-05T19:55:48.023Z,5.30
2023-02-05T19:58:39.580Z,5.30
2023-02-05T20:01:33.943Z,5.30
2023-02-05T20:04:24.282Z,5.20
2023-02-05T20:07:10.146Z,5.70
2023-02-05T20:09:56.015Z,5.70
2023-02-05T20:12:42.441Z,5.20
2023-02-05T20:15:28.195Z,5.30
2023-02-05T20:18:14.298Z,5.30
2023-02-05T20:21:00.323Z,5.30
2023-02-05T20:23:48.361Z,5.30
2023-02-05T20:26:36.279Z,5.10
2023-02-05T20:29:40.473Z,5.00
2023-02-05T20:32:26.393Z,5.10
2023-02-05T20:35:12.251Z,5.00
2023-02-05T20:37:58.367Z,5.00
2023-02-05T20:40:44.320Z,5.10
2023-02-05T20:43:30.392Z,5.10
2023-02-05T20:46:16.751Z,5.10
2023-02-05T20:49:03.521Z,5.40
2023-02-05T20:51:49.898Z,5.50
2023-02-05T20:54:36.027Z,5.40
2023-02-05T20:57:21.989Z,5.40
2023-02-05T21:00:08.571Z,5.70
2023-02-05T21:02:54.511Z,5.90
2023-02-05T21:05:40.245Z,6.20
2023-02-05T21:08:25.924Z,6.60
2023-02-05T21:11:15.766Z,6.80
2023-02-05T21:14:03.488Z,7.00
2023-02-05T21:16:49.561Z,6.80
2023-02-05T21:19:35.451Z,6.70
2023-02-05T21:22:21.044Z,5.90
2023-02-05T21:25:07.526Z,5.20
2023-02-05T21:27:53.273Z,5.00
2023-02-05T21:30:39.974Z,5.10
2023-02-05T21:33:26.662Z,5.00
2023-02-05T21:36:12.872Z,5.50
2023-02-05T21:38:58.866Z,5.50
2023-02-05T21:41:47.770Z,4.90
2023-02-05T21:44:33.651Z,5.30
2023-02-05T21:47:19.698Z,4.90
2023-02-05T21:50:06.633Z,4.80
2023-02-05T21:52:55.085Z,4.60
2023-02-05T21:55:40.752Z,4.30
2023-02-05T21:58:26.705Z,4.30
2023-02-05T22:01:21.629Z,4.30
2023-02-05T22:04:14.101Z,4.40
2023-02-05T22:07:00.259Z,4.50
2023-02-05T22:09:46.522Z,4.60
2023-02-05T22:12:32.615Z,4.90
2023-02-05T22:15:18.666Z,5.20
2023-02-05T22:18:04.464Z,4.70
2023-02-05T22:20:50.442Z,4.50
2023-02-05T22:23:36.569Z,4.30
2023-02-05T22:26:28.494Z,4.40
2023-02-05T22:29:17.869Z,4.40
2023-02-05T22:32:03.927Z,4.40
2023-02-05T22:34:49.488Z,4.30
2023-02-05T22:37:35.237Z,4.40
2023-02-05T22:40:21.237Z,4.30
2023-02-05T22:43:06.998Z,4.30
2023-02-05T22:45:53.124Z,4.30
2023-02-05T22:48:40.684Z,4.10
2023-02-05T22:51:31.722Z,4.10
2023-02-05T22:54:17.685Z,4.30
2023-02-05T22:57:03.765Z,4.60
2023-02-05T22:59:50.186Z,4.80
2023-02-05T23:02:36.230Z,4.80
2023-02-05T23:05:22.021Z,4.70
2023-02-05T23:08:07.624Z,4.50
2023-02-05T23:10:53.599Z,4.50
2023-02-05T23:13:40.577Z,4.90
2023-02-05T23:16:30.082Z,4.50
2023-02-05T23:19:20.569Z,4.50
2023-02-05T23:22:10.583Z,4.20
2023-02-05T23:24:56.490Z,3.90
2023-02-05T23:27:42.731Z,3.90
2023-02-05T23:30:29.241Z,3.90
2023-02-05T23:33:14.962Z,4.00
2023-02-05T23:36:00.916Z,4.10
2023-02-05T23:38:47.278Z,4.40
2023-02-05T23:41:36.299Z,4.10
2023-02-05T23:44:22.351Z,4.00
2023-02-05T23:47:09.342Z,3.90
2023-02-05T23:49:54.954Z,4.00
2023-02-05T23:52:40.736Z,4.10
2023-02-05T23:55:26.340Z,4.20
2023-02-05T23:58:12.102Z,4.30
